Time;durP1;ratioP1;P1;durP2;ratioP2;P2;SDS_P1;SDS_P2;PMS_P1;PMS_P2;Temp;Humidity;BMP_temperature;BMP_pressure;BME280_temperature;BME280_humidity;BME280_pressure;Samples;Min_cycle;Max_cycle;Signal;HPM_P1;HPM_P2
2023/11/09 00:00:09;;;;;;;1.92;1.40;;;3.50;99.90;;;;;;4957544;28;20212;-70
2023/11/09 00:02:35;;;;;;;2.17;1.35;;;3.40;99.90;;;;;;4955191;28;20319;-70
2023/11/09 00:05:04;;;;;;;3.92;1.70;;;3.50;99.90;;;;;;4954963;28;20236;-70
2023/11/09 00:07:32;;;;;;;3.10;2.60;;;3.50;99.90;;;;;;4955523;28;20222;-71
2023/11/09 00:10:00;;;;;;;2.20;1.95;;;3.50;99.90;;;;;;4954879;28;20215;-70
2023/11/09 00:12:28;;;;;;;2.78;1.85;;;3.50;99.90;;;;;;4960076;28;20330;-70
2023/11/09 00:14:55;;;;;;;3.42;2.35;;;3.50;99.90;;;;;;4957213;28;20220;-70
2023/11/09 04:31:05;;;;;;;1.38;1.08;;;2.90;99.90;;;;;;5853152;23;20631;-69
2023/11/09 04:33:33;;;;;;;2.72;1.80;;;2.90;99.90;;;;;;4989999;28;20314;-68
2023/11/09 04:36:05;;;;;;;2.35;1.80;;;2.90;99.90;;;;;;4993198;28;20230;-70
2023/11/09 04:38:36;;;;;;;2.30;1.50;;;3.00;99.90;;;;;;4993634;28;20677;-70
2023/11/09 04:41:06;;;;;;;1.65;1.48;;;2.90;99.90;;;;;;4993110;28;20329;-70
2023/11/09 04:43:34;;;;;;;1.83;1.55;;;2.90;99.90;;;;;;4993052;28;20213;-70
2023/11/09 04:46:05;;;;;;;1.85;1.70;;;2.90;99.90;;;;;;4992970;28;20206;-70
2023/11/09 04:48:34;;;;;;;2.47;1.55;;;2.90;99.90;;;;;;4992005;28;20635;-70
2023/11/09 04:51:03;;;;;;;2.60;1.65;;;2.90;99.90;;;;;;4992439;28;20226;-70
2023/11/09 04:53:41;;;;;;;3.08;1.90;;;2.90;99.90;;;;;;4992329;28;20275;-70
2023/11/09 04:56:19;;;;;;;2.30;1.80;;;3.00;99.90;;;;;;4991472;28;20210;-70
2023/11/09 04:58:48;;;;;;;1.77;1.60;;;3.00;99.90;;;;;;4992505;28;20203;-71
2023/11/09 05:06:52;;;;;;;2.10;1.65;;;3.20;99.90;;;;;;4992494;28;20285;-70
2023/11/09 05:09:20;;;;;;;4.05;2.05;;;3.40;99.90;;;;;;4992101;28;20202;-70
2023/11/09 05:11:47;;;;;;;3.60;2.70;;;3.40;99.90;;;;;;4991359;28;20214;-71
2023/11/09 05:14:14;;;;;;;5.15;2.30;;;3.60;99.90;;;;;;4990350;28;20215;-70
2023/11/09 05:16:41;;;;;;;5.15;2.28;;;3.60;99.90;;;;;;4988654;28;20200;-70
2023/11/09 05:19:10;;;;;;;2.33;2.13;;;3.70;99.90;;;;;;4990663;28;20329;-71
2023/11/09 05:21:37;;;;;;;3.22;1.90;;;3.70;99.90;;;;;;4992100;28;20227;-70
2023/11/09 05:24:04;;;;;;;2.60;2.35;;;3.80;99.90;;;;;;4990622;28;20282;-70
2023/11/09 05:26:34;;;;;;;5.05;2.20;;;3.80;99.90;;;;;;4992012;28;20207;-70
2023/11/09 05:29:04;;;;;;;2.97;2.33;;;3.90;99.90;;;;;;4992199;28;20234;-70
2023/11/09 05:31:34;;;;;;;3.22;2.42;;;3.90;99.90;;;;;;4992006;28;20227;-70
2023/11/09 05:34:01;;;;;;;2.63;2.35;;;4.00;99.90;;;;;;4991535;28;20265;-70
2023/11/09 05:36:29;;;;;;;4.15;2.63;;;4.10;99.90;;;;;;4992229;28;20579;-70
2023/11/09 05:38:55;;;;;;;4.60;2.35;;;4.10;99.90;;;;;;4990910;28;20242;-70
2023/11/09 05:41:22;;;;;;;2.17;1.98;;;4.10;99.90;;;;;;4992402;28;20227;-70
2023/11/09 05:43:49;;;;;;;3.10;2.35;;;4.10;99.90;;;;;;4992108;28;20214;-72
2023/11/09 05:46:15;;;;;;;3.92;2.40;;;4.10;99.90;;;;;;4992154;28;20211;-70
2023/11/09 05:48:42;;;;;;;2.60;2.15;;;4.10;99.90;;;;;;4991944;28;20203;-70
2023/11/09 05:51:09;;;;;;;2.60;2.03;;;4.00;99.90;;;;;;4991618;28;20227;-70
2023/11/09 05:53:37;;;;;;;2.63;1.80;;;4.00;99.90;;;;;;4991660;28;20207;-70
2023/11/09 05:56:04;;;;;;;2.38;1.80;;;4.00;99.90;;;;;;4991632;28;20767;-70
2023/11/09 05:58:31;;;;;;;3.50;1.98;;;4.00;99.90;;;;;;4992060;28;20242;-70
2023/11/09 06:00:58;;;;;;;11.13;2.17;;;4.00;99.90;;;;;;4991498;28;20238;-70
2023/11/09 06:03:25;;;;;;;2.53;2.13;;;4.00;99.90;;;;;;4991340;28;20808;-70
2023/11/09 06:05:52;;;;;;;5.38;2.10;;;4.00;99.90;;;;;;4991481;28;20211;-70
2023/11/09 06:08:19;;;;;;;1.85;1.75;;;4.10;99.90;;;;;;4991904;28;20221;-70
2023/11/09 06:10:49;;;;;;;3.70;2.00;;;4.00;99.90;;;;;;4991610;28;20223;-69
2023/11/09 06:13:16;;;;;;;2.25;2.05;;;4.00;99.90;;;;;;4990791;28;20200;-68
2023/11/09 06:15:42;;;;;;;1.95;1.77;;;4.10;99.90;;;;;;4991715;28;20210;-70
2023/11/09 06:18:10;;;;;;;2.88;2.47;;;4.10;99.90;;;;;;4991610;28;20635;-70
2023/11/09 06:20:37;;;;;;;2.42;1.65;;;4.10;99.90;;;;;;4991658;28;20281;-70
2023/11/09 06:23:04;;;;;;;2.90;2.22;;;4.20;99.90;;;;;;4991243;28;20317;-68
2023/11/09 06:25:31;;;;;;;1.85;1.73;;;4.20;99.90;;;;;;4991252;28;20208;-70
2023/11/09 06:27:59;;;;;;;2.63;1.85;;;4.20;99.90;;;;;;4991433;28;20319;-69
2023/11/09 06:30:27;;;;;;;2.22;1.60;;;4.30;99.90;;;;;;4991675;28;20559;-70
2023/11/09 06:32:54;;;;;;;4.38;2.47;;;4.40;99.90;;;;;;4991520;28;20207;-70
2023/11/09 06:35:21;;;;;;;2.20;1.90;;;4.50;99.90;;;;;;4990219;28;20215;-69
2023/11/09 06:37:50;;;;;;;2.50;2.22;;;4.60;99.90;;;;;;4991249;28;20681;-69
2023/11/09 06:40:18;;;;;;;3.35;2.22;;;4.60;99.90;;;;;;4990293;28;20592;-70
2023/11/09 06:42:47;;;;;;;2.08;1.88;;;4.70;99.90;;;;;;4991321;28;20232;-69
2023/11/09 06:45:15;;;;;;;4.00;2.17;;;4.70;99.90;;;;;;4990197;28;20211;-69
2023/11/09 06:47:42;;;;;;;2.63;2.35;;;4.70;99.90;;;;;;4991291;28;20215;-69
2023/11/09 06:50:12;;;;;;;3.55;2.75;;;4.70;99.90;;;;;;4991198;28;20698;-69
2023/11/09 06:52:40;;;;;;;2.47;2.28;;;4.70;99.90;;;;;;4991397;28;20211;-70
2023/11/09 06:55:07;;;;;;;4.18;2.50;;;4.70;99.90;;;;;;4990643;28;20218;-70
2023/11/09 06:57:34;;;;;;;2.10;1.83;;;4.70;99.90;;;;;;4991421;28;20205;-69
2023/11/09 07:00:05;;;;;;;3.08;2.45;;;4.70;99.90;;;;;;4990990;28;20204;-69
2023/11/09 07:02:33;;;;;;;3.22;2.50;;;4.80;99.90;;;;;;4991232;28;20227;-69
2023/11/09 07:05:00;;;;;;;5.35;2.53;;;4.90;99.90;;;;;;4990818;28;20211;-68
2023/11/09 07:07:27;;;;;;;2.58;2.20;;;4.90;99.90;;;;;;4991397;28;20203;-69
2023/11/09 07:09:54;;;;;;;2.50;1.60;;;5.00;99.90;;;;;;4991054;28;20323;-69
2023/11/09 07:12:21;;;;;;;2.20;2.00;;;5.10;99.90;;;;;;4991131;28;20229;-70
2023/11/09 07:14:47;;;;;;;3.15;2.10;;;5.10;99.90;;;;;;4990570;28;20205;-69
2023/11/09 07:17:14;;;;;;;2.13;1.92;;;5.20;99.90;;;;;;4991036;28;20212;-69
2023/11/09 07:19:43;;;;;;;1.98;1.50;;;5.30;99.90;;;;;;4991114;28;20208;-69
2023/11/09 07:22:10;;;;;;;1.67;1.58;;;5.40;99.90;;;;;;4990901;28;20606;-70
2023/11/09 07:24:39;;;;;;;2.90;2.05;;;5.50;99.90;;;;;;4990573;28;20598;-70
2023/11/09 07:27:08;;;;;;;1.95;1.83;;;5.60;99.90;;;;;;4991037;28;20212;-69
2023/11/09 07:29:35;;;;;;;1.98;1.85;;;5.70;99.90;;;;;;4991147;28;20257;-69
2023/11/09 07:32:02;;;;;;;1.90;1.75;;;5.90;99.90;;;;;;4990183;28;20233;-69
2023/11/09 07:34:30;;;;;;;3.15;1.75;;;6.10;99.90;;;;;;4987001;28;20220;-69
2023/11/09 07:36:59;;;;;;;2.95;1.67;;;6.20;99.90;;;;;;4986815;28;20214;-69
2023/11/09 07:39:27;;;;;;;1.65;1.13;;;6.50;99.90;;;;;;4986969;28;20205;-70
2023/11/09 07:41:54;;;;;;;1.73;1.20;;;6.60;99.90;;;;;;4986814;28;20235;-70
2023/11/09 07:44:21;;;;;;;1.83;1.65;;;6.90;99.90;;;;;;4985527;28;20684;-70
2023/11/09 07:46:49;;;;;;;1.65;1.55;;;7.00;99.90;;;;;;4987708;28;20213;-70
2023/11/09 07:49:16;;;;;;;1.85;1.35;;;7.10;99.90;;;;;;4988956;28;20756;-70
2023/11/09 07:51:43;;;;;;;1.60;1.50;;;7.20;99.90;;;;;;4990597;28;20230;-69
2023/11/09 07:54:11;;;;;;;3.38;1.90;;;7.20;99.90;;;;;;4988130;28;20216;-69
2023/11/09 07:56:38;;;;;;;2.55;2.20;;;7.20;99.90;;;;;;4990292;28;20213;-69
2023/11/09 07:59:06;;;;;;;3.00;1.95;;;7.20;99.90;;;;;;4988292;28;20697;-68
2023/11/09 08:01:32;;;;;;;2.08;1.60;;;7.10;99.90;;;;;;4990543;28;20232;-69
2023/11/09 08:03:59;;;;;;;2.05;1.73;;;7.10;99.90;;;;;;4988901;28;20223;-68
2023/11/09 08:06:26;;;;;;;2.42;1.92;;;7.10;99.90;;;;;;4988834;28;20230;-69
2023/11/09 08:08:53;;;;;;;2.03;1.55;;;7.10;99.90;;;;;;4989288;28;20588;-69
2023/11/09 08:11:21;;;;;;;2.13;1.55;;;7.10;99.90;;;;;;4988178;28;20231;-68
2023/11/09 08:13:51;;;;;;;1.83;1.50;;;7.10;99.90;;;;;;4989243;28;20212;-69
2023/11/09 08:16:20;;;;;;;3.50;1.88;;;7.10;99.90;;;;;;4992341;28;20767;-68
2023/11/09 08:18:48;;;;;;;2.35;1.58;;;7.10;99.90;;;;;;4993801;28;20205;-69
2023/11/09 08:21:16;;;;;;;1.70;1.40;;;7.10;99.90;;;;;;4993002;28;20230;-68
2023/11/09 08:23:43;;;;;;;2.67;2.05;;;7.10;99.90;;;;;;4993254;28;20688;-69
2023/11/09 08:26:12;;;;;;;3.17;2.13;;;7.20;99.90;;;;;;4992884;28;20209;-69
2023/11/09 08:28:40;;;;;;;2.78;2.35;;;7.20;99.90;;;;;;4993615;28;20206;-68
2023/11/09 08:31:08;;;;;;;2.17;1.98;;;7.30;99.90;;;;;;4993414;28;20246;-69
2023/11/09 08:33:39;;;;;;;1.45;1.33;;;7.30;99.90;;;;;;4992861;28;20294;-69
2023/11/09 08:36:10;;;;;;;3.80;1.45;;;7.40;99.90;;;;;;4993629;28;20207;-69
2023/11/09 08:38:39;;;;;;;1.80;1.70;;;7.40;99.90;;;;;;4993518;28;20229;-68
2023/11/09 08:41:06;;;;;;;2.72;1.77;;;7.50;99.90;;;;;;4993425;28;20235;-69
2023/11/09 08:43:33;;;;;;;1.85;1.40;;;7.50;99.90;;;;;;4992672;28;20230;-69
2023/11/09 08:46:02;;;;;;;1.75;1.30;;;7.60;99.90;;;;;;4992854;28;20211;-69
2023/11/09 08:48:32;;;;;;;2.03;1.80;;;7.60;99.90;;;;;;4993138;28;20211;-69
2023/11/09 08:51:00;;;;;;;1.80;1.70;;;7.70;99.90;;;;;;4992928;28;20227;-68
2023/11/09 08:53:31;;;;;;;2.17;1.65;;;7.70;99.90;;;;;;4992639;28;20929;-69
2023/11/09 08:55:58;;;;;;;2.22;1.40;;;7.80;99.90;;;;;;4992996;28;20250;-68
2023/11/09 08:58:25;;;;;;;2.35;1.80;;;7.90;99.90;;;;;;4992050;28;20627;-69
2023/11/09 09:00:53;;;;;;;2.28;2.00;;;8.00;99.90;;;;;;4992825;28;20640;-69
2023/11/09 09:03:24;;;;;;;3.10;1.77;;;8.00;99.90;;;;;;4992398;28;20269;-69
2023/11/09 09:05:52;;;;;;;1.67;1.58;;;8.10;99.90;;;;;;4992966;28;20199;-69
2023/11/09 09:08:19;;;;;;;1.73;1.50;;;8.20;99.90;;;;;;4990405;28;20566;-69
2023/11/09 09:10:46;;;;;;;1.70;1.40;;;8.20;99.90;;;;;;4992759;28;20223;-69
2023/11/09 09:13:13;;;;;;;3.80;2.38;;;8.20;99.90;;;;;;4992852;28;20254;-70
2023/11/09 09:15:40;;;;;;;2.92;2.30;;;8.20;99.90;;;;;;4989493;28;20213;-70
2023/11/09 09:18:09;;;;;;;5.05;3.10;;;8.20;99.90;;;;;;4983856;28;20207;-70
2023/11/09 09:20:39;;;;;;;2.05;1.70;;;8.20;99.90;;;;;;4985680;28;20234;-70
2023/11/09 09:23:07;;;;;;;2.40;1.80;;;8.30;99.90;;;;;;4983774;28;20223;-70
2023/11/09 09:25:34;;;;;;;2.58;1.63;;;8.30;99.90;;;;;;4984810;28;20204;-69
2023/11/09 09:28:01;;;;;;;2.83;1.42;;;8.40;99.90;;;;;;4984907;28;20204;-70
2023/11/09 09:30:29;;;;;;;2.78;1.98;;;8.40;99.90;;;;;;4984389;28;20271;-69
2023/11/09 09:32:56;;;;;;;1.60;1.42;;;8.40;99.90;;;;;;4985327;28;20221;-69
2023/11/09 09:35:25;;;;;;;4.53;3.15;;;8.50;99.90;;;;;;4982571;28;20295;-69
2023/11/09 09:37:53;;;;;;;5.35;3.60;;;8.50;99.90;;;;;;4985637;28;20199;-69
2023/11/09 09:40:23;;;;;;;1.45;1.35;;;8.50;99.90;;;;;;4989265;28;20269;-69
2023/11/09 09:42:52;;;;;;;4.30;3.10;;;8.60;99.90;;;;;;4992182;28;20246;-70
2023/11/09 09:45:21;;;;;;;2.38;1.70;;;8.60;99.90;;;;;;4988518;28;20698;-70
2023/11/09 09:47:50;;;;;;;2.58;1.30;;;8.70;99.90;;;;;;4992233;28;20298;-69
2023/11/09 09:50:17;;;;;;;1.67;1.30;;;8.80;99.90;;;;;;4988661;28;20207;-69
2023/11/09 09:52:47;;;;;;;1.55;1.45;;;8.90;99.90;;;;;;4992206;28;20672;-69
2023/11/09 09:55:18;;;;;;;1.80;1.25;;;8.90;99.90;;;;;;4981789;28;20216;-70
2023/11/09 09:57:45;;;;;;;1.70;1.38;;;9.00;99.90;;;;;;4980882;28;20207;-69
2023/11/09 10:00:23;;;;;;;1.67;1.30;;;9.00;99.90;;;;;;4981914;28;20219;-70
2023/11/09 10:02:51;;;;;;;1.55;1.27;;;9.00;99.90;;;;;;4988392;28;20251;-71
2023/11/09 10:05:20;;;;;;;1.70;1.13;;;9.00;99.90;;;;;;4988118;28;20266;-70
2023/11/09 10:08:08;;;;;;;1.13;1.02;;;9.00;99.90;;;;;;4991801;28;20209;-70
2023/11/09 10:10:37;;;;;;;1.90;1.38;;;9.10;99.90;;;;;;4990168;28;20238;-71
2023/11/09 10:13:07;;;;;;;2.15;1.10;;;9.10;99.90;;;;;;4991593;28;20219;-71
2023/11/09 10:15:35;;;;;;;1.25;1.15;;;9.10;99.90;;;;;;4991508;28;20207;-71
2023/11/09 10:18:02;;;;;;;1.50;1.30;;;9.20;99.90;;;;;;4991547;28;20207;-71
2023/11/09 10:20:29;;;;;;;1.75;1.10;;;9.20;99.90;;;;;;4991297;28;20207;-71
2023/11/09 10:22:57;;;;;;;1.42;0.93;;;9.30;99.90;;;;;;4987116;28;20317;-70
2023/11/09 10:25:27;;;;;;;1.20;0.80;;;9.40;99.90;;;;;;4980241;28;20235;-71
2023/11/09 10:28:00;;;;;;;1.20;0.98;;;9.40;99.90;;;;;;4983184;28;20231;-71
2023/11/09 10:30:28;;;;;;;1.10;1.00;;;9.40;99.90;;;;;;4980869;28;20239;-71
2023/11/09 10:33:02;;;;;;;1.13;1.00;;;9.40;99.90;;;;;;4982812;28;20641;-71
2023/11/09 10:35:29;;;;;;;1.42;1.00;;;9.50;99.90;;;;;;4980611;28;20212;-71
2023/11/09 10:37:57;;;;;;;3.83;1.20;;;9.60;99.90;;;;;;4982814;28;20585;-70
2023/11/09 10:40:27;;;;;;;1.88;1.10;;;9.60;99.90;;;;;;4980089;28;20301;-71
2023/11/09 10:43:00;;;;;;;1.05;0.95;;;9.60;99.90;;;;;;4982728;28;20230;-71
2023/11/09 10:45:30;;;;;;;1.25;1.00;;;9.70;99.90;;;;;;4979773;28;20212;-71
2023/11/09 10:47:59;;;;;;;1.75;0.85;;;9.80;99.90;;;;;;4982367;28;20203;-71
2023/11/09 10:50:28;;;;;;;2.00;1.15;;;9.80;99.90;;;;;;4979999;28;20208;-71
2023/11/09 10:52:57;;;;;;;1.33;0.90;;;9.90;99.90;;;;;;4982343;28;20676;-72
2023/11/09 10:55:25;;;;;;;1.85;1.00;;;10.00;99.90;;;;;;4978836;28;20211;-70
2023/11/09 10:57:55;;;;;;;1.23;1.00;;;10.10;99.90;;;;;;4982644;28;20633;-71
2023/11/09 11:00:34;;;;;;;1.35;0.90;;;10.20;99.90;;;;;;4987676;28;20203;-71
2023/11/09 11:03:08;;;;;;;1.65;1.02;;;10.40;99.90;;;;;;4991222;28;20227;-72
2023/11/09 11:05:40;;;;;;;1.20;1.02;;;10.80;99.90;;;;;;4991021;28;20213;-71
2023/11/09 11:08:12;;;;;;;1.30;1.17;;;11.20;99.90;;;;;;4991013;28;20209;-71
2023/11/09 11:10:46;;;;;;;1.35;1.10;;;12.30;99.90;;;;;;4991103;28;20278;-73
2023/11/09 11:13:17;;;;;;;1.33;1.00;;;12.90;99.90;;;;;;4991224;28;20209;-72
2023/11/09 11:16:11;;;;;;;1.45;1.20;;;12.80;99.90;;;;;;4991074;28;20216;-71
2023/11/09 11:18:57;;;;;;;2.25;1.23;;;12.70;99.90;;;;;;4989227;28;20211;-71
2023/11/09 11:21:41;;;;;;;1.00;0.90;;;12.70;99.90;;;;;;4987575;28;20291;-72
2023/11/09 11:24:50;;;;;;;1.30;1.17;;;12.40;99.90;;;;;;4994516;28;20225;-72
2023/11/09 11:27:23;;;;;;;0.80;0.70;;;12.40;99.90;;;;;;4975876;28;20210;-71
2023/11/09 11:29:53;;;;;;;2.90;1.27;;;12.40;99.90;;;;;;4985007;28;20211;-71
2023/11/09 11:32:33;;;;;;;1.17;1.08;;;12.40;99.90;;;;;;4990633;28;20251;-71
2023/11/09 11:35:01;;;;;;;1.10;1.00;;;12.30;99.90;;;;;;4993817;28;20206;-71
2023/11/09 11:37:30;;;;;;;3.75;1.20;;;12.20;99.90;;;;;;4994481;28;20212;-71
2023/11/09 11:39:56;;;;;;;2.15;1.00;;;12.10;99.90;;;;;;4994182;28;20304;-71
2023/11/09 11:42:27;;;;;;;2.17;1.17;;;12.20;99.90;;;;;;4994558;28;20652;-72
2023/11/09 11:44:55;;;;;;;1.77;1.13;;;12.00;99.90;;;;;;4993877;28;20229;-72
2023/11/09 11:47:23;;;;;;;3.33;1.50;;;12.00;99.90;;;;;;4994354;28;20215;-72
2023/11/09 11:49:51;;;;;;;1.70;1.13;;;11.80;99.90;;;;;;4994190;28;20698;-71
2023/11/09 11:52:19;;;;;;;1.35;1.10;;;11.80;99.90;;;;;;4989553;28;20232;-72
2023/11/09 11:54:46;;;;;;;1.00;0.80;;;11.70;99.90;;;;;;4993547;28;20213;-71
2023/11/09 11:57:15;;;;;;;1.45;1.00;;;11.50;99.90;;;;;;4994304;28;20217;-71
2023/11/09 11:59:43;;;;;;;1.35;1.08;;;11.60;99.90;;;;;;4994029;28;20216;-70
2023/11/09 12:02:12;;;;;;;1.00;0.80;;;11.50;99.90;;;;;;4994174;28;20234;-72
2023/11/09 12:04:47;;;;;;;1.15;1.05;;;11.50;99.90;;;;;;4993278;28;20282;-71
2023/11/09 12:07:20;;;;;;;1.20;1.10;;;11.40;99.90;;;;;;4994003;28;20204;-71
2023/11/09 12:09:47;;;;;;;1.00;0.85;;;11.50;99.90;;;;;;4994163;28;20217;-71
2023/11/09 12:12:15;;;;;;;0.90;0.80;;;11.50;99.90;;;;;;4985713;28;20237;-71
2023/11/09 12:14:43;;;;;;;1.00;0.80;;;11.50;99.90;;;;;;4980812;28;20289;-70
2023/11/09 12:17:10;;;;;;;1.00;0.90;;;11.60;99.90;;;;;;4980937;28;20226;-71
2023/11/09 12:19:37;;;;;;;1.35;1.00;;;11.70;99.90;;;;;;4980402;28;20255;-71
2023/11/09 12:22:07;;;;;;;1.23;0.90;;;11.80;99.90;;;;;;4981246;28;20265;-71
2023/11/09 12:24:37;;;;;;;0.80;0.70;;;11.80;99.90;;;;;;4979049;28;20314;-71
2023/11/09 12:27:06;;;;;;;0.80;0.60;;;11.90;99.90;;;;;;4981153;28;20680;-70
2023/11/09 12:29:33;;;;;;;0.90;0.80;;;11.90;99.90;;;;;;4979365;28;20688;-71
2023/11/09 12:31:59;;;;;;;0.95;0.70;;;12.00;99.90;;;;;;4990863;28;20656;-72
2023/11/09 12:34:26;;;;;;;0.90;0.70;;;12.00;99.90;;;;;;4993141;28;20202;-72
2023/11/09 12:36:54;;;;;;;0.95;0.80;;;12.10;99.90;;;;;;4993183;28;20212;-71
2023/11/09 12:39:29;;;;;;;0.80;0.70;;;12.10;99.90;;;;;;4993462;28;20665;-72
2023/11/09 12:41:56;;;;;;;0.80;0.60;;;12.10;99.90;;;;;;4993012;28;20257;-72
2023/11/09 12:44:24;;;;;;;0.80;0.80;;;12.20;99.90;;;;;;4992866;28;20222;-71
2023/11/09 12:46:53;;;;;;;1.85;1.17;;;12.20;99.90;;;;;;4992956;28;20296;-72
2023/11/09 12:49:21;;;;;;;0.80;0.70;;;12.20;99.90;;;;;;4987952;28;20234;-72
2023/11/09 12:51:49;;;;;;;1.38;0.90;;;12.30;99.90;;;;;;4992915;28;20237;-71
2023/11/09 12:54:19;;;;;;;1.85;1.35;;;12.30;99.90;;;;;;4992905;28;20210;-72
2023/11/09 12:56:49;;;;;;;1.10;0.82;;;12.30;99.90;;;;;;4992938;28;20205;-72
2023/11/09 12:59:24;;;;;;;2.03;1.08;;;12.30;99.90;;;;;;4992985;28;20307;-72
2023/11/09 13:01:51;;;;;;;0.90;0.70;;;12.40;99.90;;;;;;4992781;28;20313;-72
2023/11/09 13:04:21;;;;;;;1.00;0.80;;;12.40;99.90;;;;;;4986850;28;20610;-71
2023/11/09 13:10:18;;;;;;;0.80;0.70;;;12.40;99.90;;;;;;4990951;28;20237;-72
2023/11/09 13:12:47;;;;;;;0.90;0.80;;;12.30;99.90;;;;;;4992693;28;20300;-71
2023/11/09 13:15:32;;;;;;;1.20;0.70;;;12.30;99.90;;;;;;4992285;28;20252;-72
2023/11/09 13:18:02;;;;;;;0.93;0.73;;;12.10;99.90;;;;;;4992600;28;20300;-72
2023/11/09 13:20:32;;;;;;;0.90;0.80;;;12.00;99.90;;;;;;4992386;28;20327;-71
2023/11/09 13:23:06;;;;;;;0.90;0.75;;;11.90;99.90;;;;;;4992508;28;20206;-72
2023/11/09 13:25:34;;;;;;;0.80;0.63;;;11.80;99.90;;;;;;4991796;28;20227;-71
2023/11/09 13:28:04;;;;;;;0.80;0.70;;;11.80;99.90;;;;;;4991340;28;20206;-72
2023/11/09 13:30:31;;;;;;;0.80;0.70;;;11.80;99.90;;;;;;4991582;28;20208;-72
2023/11/09 13:33:02;;;;;;;1.10;0.60;;;11.70;99.90;;;;;;4992015;28;20240;-72
2023/11/09 13:35:32;;;;;;;0.80;0.60;;;11.80;99.90;;;;;;4991899;28;20205;-72
2023/11/09 13:38:07;;;;;;;0.80;0.70;;;11.70;99.90;;;;;;4992306;28;20227;-72
2023/11/09 13:40:39;;;;;;;0.80;0.70;;;11.70;99.90;;;;;;4980724;28;20952;-72
2023/11/09 13:43:11;;;;;;;1.20;0.80;;;11.70;99.90;;;;;;4989677;28;20216;-71
2023/11/09 13:45:46;;;;;;;0.80;0.70;;;11.60;99.90;;;;;;4982394;28;20223;-71
2023/11/09 13:48:22;;;;;;;1.00;0.70;;;11.60;99.90;;;;;;4983028;28;20587;-71
2023/11/09 13:50:50;;;;;;;0.85;0.70;;;11.50;99.90;;;;;;4976739;28;20233;-71
2023/11/09 13:53:40;;;;;;;0.90;0.70;;;11.40;99.90;;;;;;4975503;28;20679;-71
2023/11/09 13:58:55;;;;;;;0.80;0.70;;;11.20;99.90;;;;;;4966412;28;20244;-71
2023/11/09 14:01:28;;;;;;;0.80;0.68;;;11.20;99.90;;;;;;4991898;28;20234;-71
2023/11/09 14:03:55;;;;;;;1.00;0.70;;;11.20;99.90;;;;;;4991234;28;20457;-71
2023/11/09 14:06:22;;;;;;;1.00;0.70;;;11.20;99.90;;;;;;4991906;28;20211;-72
2023/11/09 14:08:51;;;;;;;1.00;0.80;;;11.10;99.90;;;;;;4991883;28;20296;-72
2023/11/09 14:11:22;;;;;;;0.80;0.63;;;11.10;99.90;;;;;;4985317;28;20230;-72
2023/11/09 14:13:50;;;;;;;0.90;0.80;;;11.10;99.90;;;;;;4991307;28;20211;-72
2023/11/09 14:16:22;;;;;;;1.25;1.10;;;11.10;99.90;;;;;;4991508;28;20732;-71
2023/11/09 14:18:57;;;;;;;0.80;0.70;;;11.00;99.90;;;;;;4991689;28;20648;-72
2023/11/09 14:21:24;;;;;;;0.90;0.70;;;11.00;99.90;;;;;;4985741;28;20230;-71
2023/11/09 14:23:51;;;;;;;0.80;0.70;;;11.10;99.90;;;;;;4990843;28;20206;-71
2023/11/09 14:26:21;;;;;;;1.33;0.82;;;11.00;99.90;;;;;;4984794;28;20204;-71
2023/11/09 14:28:49;;;;;;;0.90;0.73;;;11.00;99.90;;;;;;4991065;28;20668;-72
2023/11/09 14:31:19;;;;;;;0.80;0.70;;;10.90;99.90;;;;;;4991421;28;20293;-72
2023/11/09 14:33:48;;;;;;;0.80;0.70;;;10.90;99.90;;;;;;4990921;28;20617;-72
2023/11/09 14:36:15;;;;;;;1.00;0.80;;;10.90;99.90;;;;;;4991550;28;20635;-71
2023/11/09 14:38:48;;;;;;;0.90;0.77;;;10.90;99.90;;;;;;4991461;28;20695;-72
2023/11/09 14:41:16;;;;;;;0.80;0.70;;;10.90;99.90;;;;;;4991121;28;20223;-71
2023/11/09 14:43:43;;;;;;;0.80;0.60;;;10.90;99.90;;;;;;4991023;28;20209;-72
2023/11/09 14:46:17;;;;;;;1.00;0.80;;;10.80;99.90;;;;;;4991259;28;20237;-72
2023/11/09 14:48:45;;;;;;;0.90;0.80;;;10.80;99.90;;;;;;4991419;28;20236;-71
2023/11/09 14:51:26;;;;;;;1.45;0.90;;;10.70;99.90;;;;;;4991433;28;20311;-72
2023/11/09 14:53:56;;;;;;;0.80;0.60;;;10.60;99.90;;;;;;4990550;28;20211;-72
2023/11/09 14:56:23;;;;;;;0.80;0.70;;;10.60;99.90;;;;;;4991314;28;20211;-71
2023/11/09 14:58:50;;;;;;;0.90;0.80;;;10.50;99.90;;;;;;4995131;28;20600;-71
2023/11/09 15:01:18;;;;;;;0.90;0.70;;;10.50;99.90;;;;;;4988004;28;20642;-71
2023/11/09 15:03:45;;;;;;;1.00;0.80;;;10.30;99.90;;;;;;4994734;28;20208;-71
2023/11/09 15:06:14;;;;;;;0.90;0.70;;;10.20;99.90;;;;;;4994683;28;20273;-72
2023/11/09 15:08:41;;;;;;;0.75;0.70;;;10.10;99.90;;;;;;4995170;28;20746;-71
2023/11/09 15:11:11;;;;;;;0.90;0.80;;;9.90;99.90;;;;;;4994997;28;20228;-71
2023/11/09 15:13:40;;;;;;;1.00;0.80;;;9.80;99.90;;;;;;4995342;28;20211;-71
2023/11/09 15:16:08;;;;;;;1.00;0.88;;;9.70;99.90;;;;;;4995133;28;20238;-71
2023/11/09 15:18:35;;;;;;;0.90;0.80;;;9.70;99.90;;;;;;4994976;28;20584;-71
2023/11/09 15:21:04;;;;;;;1.38;0.95;;;9.60;99.90;;;;;;4994717;28;20728;-71
2023/11/09 15:23:32;;;;;;;1.48;0.80;;;9.50;99.90;;;;;;4994302;28;20293;-71
2023/11/09 15:25:59;;;;;;;1.00;0.85;;;9.50;99.90;;;;;;4994754;28;20233;-71
2023/11/09 15:28:26;;;;;;;0.90;0.80;;;9.50;99.90;;;;;;4994810;28;20215;-70
2023/11/09 15:30:52;;;;;;;1.00;0.80;;;9.40;99.90;;;;;;4994227;28;20246;-71
2023/11/09 15:33:21;;;;;;;1.23;0.80;;;9.40;99.90;;;;;;4994302;28;20214;-70
2023/11/09 15:35:48;;;;;;;0.80;0.70;;;9.40;99.90;;;;;;4994935;28;20218;-71
2023/11/09 15:38:16;;;;;;;1.00;0.73;;;9.40;99.90;;;;;;4994718;28;20586;-71
2023/11/09 15:40:45;;;;;;;1.00;0.90;;;9.40;99.90;;;;;;4994701;28;20228;-72
2023/11/09 15:43:13;;;;;;;1.00;0.80;;;9.40;99.90;;;;;;4993951;28;20270;-72
2023/11/09 15:45:41;;;;;;;0.80;0.70;;;9.40;99.90;;;;;;4994067;28;20650;-72
2023/11/09 15:48:08;;;;;;;1.10;0.80;;;9.40;99.90;;;;;;4994467;28;20203;-72
2023/11/09 15:50:36;;;;;;;0.80;0.70;;;9.40;99.90;;;;;;4994295;28;20617;-71
2023/11/09 15:53:02;;;;;;;0.85;0.77;;;9.40;99.90;;;;;;4994145;28;20250;-72
2023/11/09 15:55:29;;;;;;;1.13;0.95;;;9.40;99.90;;;;;;4993502;28;20196;-72
2023/11/09 15:57:59;;;;;;;1.10;0.80;;;9.30;99.90;;;;;;4993907;28;20203;-71
2023/11/09 16:00:26;;;;;;;1.00;0.80;;;9.30;99.90;;;;;;4994156;28;20290;-71
2023/11/09 16:02:54;;;;;;;0.80;0.70;;;9.30;99.90;;;;;;4993190;28;21078;-71
2023/11/09 16:05:22;;;;;;;1.35;0.90;;;9.20;99.90;;;;;;4992998;28;20669;-72
2023/11/09 16:07:51;;;;;;;1.27;0.80;;;9.20;99.90;;;;;;4993264;28;20738;-71
2023/11/09 16:10:21;;;;;;;1.00;0.90;;;9.10;99.90;;;;;;4993717;28;20668;-71
2023/11/09 16:12:48;;;;;;;1.30;0.98;;;9.10;99.90;;;;;;4993901;28;20762;-71
2023/11/09 16:15:20;;;;;;;1.15;1.02;;;9.10;99.90;;;;;;4992831;28;20664;-70
2023/11/09 16:17:48;;;;;;;1.17;0.90;;;9.00;99.90;;;;;;4993873;28;20200;-71
2023/11/09 16:20:17;;;;;;;1.00;0.90;;;9.00;99.90;;;;;;4993293;28;20218;-71
2023/11/09 16:22:44;;;;;;;1.40;1.00;;;9.00;99.90;;;;;;4993888;28;20206;-70
2023/11/09 16:25:17;;;;;;;1.67;1.20;;;9.00;99.90;;;;;;4993021;28;20708;-71
2023/11/09 16:27:45;;;;;;;1.20;1.02;;;8.90;99.90;;;;;;4993607;28;20226;-71
2023/11/09 16:30:14;;;;;;;1.27;0.93;;;8.90;99.90;;;;;;4988019;28;20327;-71
2023/11/09 16:32:42;;;;;;;1.40;0.93;;;8.90;99.90;;;;;;4979903;28;20227;-71
2023/11/09 16:35:09;;;;;;;1.48;1.23;;;8.90;99.90;;;;;;4992364;28;20211;-71
2023/11/09 16:37:39;;;;;;;1.10;1.00;;;8.80;99.90;;;;;;4992558;28;20262;-71
2023/11/09 16:40:07;;;;;;;1.40;1.20;;;8.80;99.90;;;;;;4993881;28;20219;-70
2023/11/09 16:42:34;;;;;;;1.25;1.13;;;8.80;99.90;;;;;;4993957;28;20234;-71
2023/11/09 16:45:01;;;;;;;1.45;1.15;;;8.80;99.90;;;;;;4994857;28;20223;-71
2023/11/09 16:47:27;;;;;;;1.33;1.23;;;8.70;99.90;;;;;;4996607;28;20211;-71
2023/11/09 16:49:56;;;;;;;1.90;1.33;;;8.70;99.90;;;;;;4997391;28;20210;-72
2023/11/09 16:52:24;;;;;;;1.70;1.10;;;8.70;99.90;;;;;;4995112;28;20223;-71
2023/11/09 16:54:51;;;;;;;1.33;1.00;;;8.70;99.90;;;;;;4993720;28;20901;-71
2023/11/09 16:57:17;;;;;;;1.50;1.38;;;8.70;99.90;;;;;;4991330;28;20214;-71
2023/11/09 16:59:45;;;;;;;1.58;1.35;;;8.60;99.90;;;;;;4992636;28;20591;-72
2023/11/09 17:02:12;;;;;;;3.00;1.58;;;8.60;99.90;;;;;;4992446;28;20246;-72
2023/11/09 17:04:39;;;;;;;1.67;1.05;;;8.60;99.90;;;;;;4990506;28;20215;-71
2023/11/09 17:07:07;;;;;;;1.55;1.45;;;8.60;99.90;;;;;;4991877;28;20225;-71
2023/11/09 17:09:34;;;;;;;1.25;1.15;;;8.60;99.90;;;;;;4991735;28;20203;-71
2023/11/09 17:12:01;;;;;;;2.00;1.67;;;8.60;99.90;;;;;;4991831;28;20242;-71
2023/11/09 17:14:28;;;;;;;1.83;1.42;;;8.60;99.90;;;;;;4991752;28;20258;-71
2023/11/09 17:16:55;;;;;;;1.48;1.17;;;8.60;99.90;;;;;;4991918;28;20212;-72
2023/11/09 17:19:24;;;;;;;1.25;1.13;;;8.50;99.90;;;;;;4991304;28;20203;-71
2023/11/09 17:21:50;;;;;;;1.52;1.10;;;8.60;99.90;;;;;;4991392;28;20235;-72
2023/11/09 17:24:18;;;;;;;1.48;1.00;;;8.50;99.90;;;;;;4990096;28;20218;-72
2023/11/09 17:26:45;;;;;;;1.50;1.30;;;8.60;99.90;;;;;;4991615;28;20790;-72